createdAt,value
2018-02-24T00:00:49.143Z,23.93
2018-02-24T00:03:16.663Z,25.97
2018-02-24T00:05:44.201Z,28.57
2018-02-24T00:08:11.734Z,29.40
2018-02-24T00:10:39.279Z,26.93
2018-02-24T00:13:06.791Z,27.83
2018-02-24T00:15:34.316Z,27.60
2018-02-24T00:18:01.836Z,26.47
2018-02-24T00:20:29.371Z,32.17
2018-02-24T00:22:56.956Z,25.93
2018-02-24T00:25:24.504Z,30.70
2018-02-24T00:27:52.038Z,30.33
2018-02-24T00:30:19.570Z,28.83
2018-02-24T00:32:47.086Z,29.13
2018-02-24T00:35:14.649Z,28.57
2018-02-24T00:37:42.186Z,28.73
2018-02-24T00:40:09.712Z,31.53
2018-02-24T00:42:37.339Z,27.00
2018-02-24T00:45:04.853Z,29.73
2018-02-24T00:47:32.382Z,28.77
2018-02-24T00:49:59.909Z,26.70
2018-02-24T00:52:27.448Z,25.93
2018-02-24T00:54:55.021Z,33.43
2018-02-24T00:57:22.548Z,26.67
2018-02-24T00:59:50.076Z,31.00
2018-02-24T01:02:17.589Z,28.30
2018-02-24T01:04:45.110Z,27.03
2018-02-24T01:07:12.731Z,30.00
2018-02-24T01:09:40.290Z,27.27
2018-02-24T01:12:07.851Z,28.60
2018-02-24T01:14:35.410Z,26.20
2018-02-24T01:17:02.941Z,28.40
2018-02-24T01:19:30.470Z,33.40
2018-02-24T01:21:57.981Z,28.27
2018-02-24T01:24:25.520Z,25.57
2018-02-24T01:26:53.046Z,30.27
2018-02-24T01:29:20.657Z,25.37
2018-02-24T01:31:48.172Z,29.83
2018-02-24T01:34:15.691Z,30.27
2018-02-24T01:36:43.209Z,31.53
2018-02-24T01:39:10.800Z,29.33
2018-02-24T01:41:38.314Z,30.53
2018-02-24T01:44:05.833Z,29.40
2018-02-24T01:46:33.378Z,28.77
2018-02-24T01:49:00.906Z,30.73
2018-02-24T01:51:28.428Z,28.03
2018-02-24T01:53:55.948Z,29.60
2018-02-24T01:56:23.468Z,32.37
2018-02-24T01:58:50.984Z,35.23
2018-02-24T02:01:18.509Z,31.70
2018-02-24T02:03:46.028Z,33.33
2018-02-24T02:06:13.565Z,28.03
2018-02-24T02:08:41.080Z,28.10
2018-02-24T02:11:08.657Z,30.33
2018-02-24T02:13:36.178Z,32.50
2018-02-24T02:16:03.804Z,31.30
2018-02-24T02:18:31.321Z,30.13
2018-02-24T02:20:58.881Z,31.47
2018-02-24T02:23:26.482Z,33.07
2018-02-24T02:25:54.010Z,29.30
2018-02-24T02:28:21.536Z,28.03
2018-02-24T02:30:49.054Z,33.43
2018-02-24T02:33:16.599Z,28.83
2018-02-24T02:35:44.126Z,30.77
2018-02-24T02:38:11.648Z,30.90
2018-02-24T02:40:39.177Z,25.97
2018-02-24T02:43:06.704Z,32.07
2018-02-24T02:45:34.227Z,28.37
2018-02-24T02:48:01.760Z,29.03
2018-02-24T02:50:29.273Z,27.03
2018-02-24T02:52:56.790Z,26.87
2018-02-24T02:55:24.365Z,25.43
2018-02-24T02:57:51.984Z,23.40
2018-02-24T03:00:19.580Z,22.03
2018-02-24T03:02:47.119Z,25.23
2018-02-24T03:05:14.640Z,23.90
2018-02-24T03:07:42.155Z,20.73
2018-02-24T03:10:09.673Z,24.17
2018-02-24T03:12:37.197Z,23.67
2018-02-24T03:15:04.727Z,21.43
2018-02-24T03:17:32.247Z,24.47
2018-02-24T03:19:59.774Z,22.53
2018-02-24T03:22:27.300Z,22.53
2018-02-24T03:24:54.825Z,22.80
2018-02-24T03:27:22.359Z,21.17
2018-02-24T03:29:49.896Z,22.13
2018-02-24T03:32:17.546Z,22.30
2018-02-24T03:34:45.078Z,24.33
2018-02-24T03:37:12.598Z,23.13
2018-02-24T03:39:40.124Z,21.03
2018-02-24T03:42:07.653Z,21.87
2018-02-24T03:44:35.180Z,21.53
2018-02-24T03:47:02.707Z,19.87
2018-02-24T03:49:30.237Z,18.00
2018-02-24T03:51:57.822Z,20.53
2018-02-24T03:54:25.386Z,20.43
2018-02-24T03:56:52.906Z,18.70
2018-02-24T03:59:20.433Z,22.87
2018-02-24T04:01:47.954Z,18.43
2018-02-24T04:04:15.622Z,17.60
2018-02-24T04:06:43.141Z,17.07
2018-02-24T04:09:10.673Z,19.67
2018-02-24T04:11:38.192Z,17.93
2018-02-24T04:14:05.712Z,19.47
2018-02-24T04:16:33.313Z,17.67
2018-02-24T04:19:00.842Z,19.77
2018-02-24T04:21:28.404Z,22.07
2018-02-24T04:23:55.938Z,19.80
2018-02-24T04:26:23.552Z,19.60
2018-02-24T04:28:51.073Z,23.97
2018-02-24T04:31:18.605Z,19.80
2018-02-24T04:33:46.131Z,21.13
2018-02-24T04:36:13.673Z,23.20
2018-02-24T04:38:41.194Z,20.97
2018-02-24T04:41:08.823Z,20.87
2018-02-24T04:43:36.373Z,22.17
2018-02-24T04:46:03.892Z,25.47
2018-02-24T04:48:31.427Z,20.57
2018-02-24T04:50:58.944Z,23.53
2018-02-24T04:53:26.462Z,24.83
2018-02-24T04:55:53.978Z,23.27
2018-02-24T04:58:21.501Z,22.90
2018-02-24T05:00:49.084Z,20.73
2018-02-24T05:03:16.601Z,22.13
2018-02-24T05:05:44.219Z,25.33
2018-02-24T05:08:11.766Z,22.10
2018-02-24T05:10:39.289Z,21.60
2018-02-24T05:13:06.823Z,18.97
2018-02-24T05:15:34.344Z,22.03
2018-02-24T05:18:01.870Z,21.50
2018-02-24T05:20:29.389Z,20.93
2018-02-24T05:22:56.909Z,19.67
2018-02-24T05:25:24.430Z,22.57
2018-02-24T05:27:51.948Z,20.40
2018-02-24T05:30:19.470Z,23.60
2018-02-24T05:32:47.065Z,19.27
2018-02-24T05:35:14.629Z,21.60
2018-02-24T05:37:42.150Z,21.50
2018-02-24T05:40:09.682Z,17.10
2018-02-24T05:42:37.206Z,20.70
2018-02-24T05:45:04.860Z,20.00
2018-02-24T05:47:32.421Z,20.10
2018-02-24T05:49:59.950Z,21.17
2018-02-24T05:52:27.469Z,19.03
2018-02-24T05:54:55.100Z,18.90
2018-02-24T05:57:22.660Z,21.23
2018-02-24T05:59:50.196Z,22.17
2018-02-24T06:02:17.794Z,21.23
2018-02-24T06:04:45.335Z,18.33
2018-02-24T06:07:12.913Z,17.23
2018-02-24T06:09:40.460Z,19.07
2018-02-24T06:12:07.977Z,17.93
2018-02-24T06:14:35.508Z,16.47
2018-02-24T06:17:03.029Z,18.97
2018-02-24T06:19:30.540Z,18.27
2018-02-24T06:21:58.093Z,18.00
2018-02-24T06:24:25.613Z,18.33
2018-02-24T06:26:53.155Z,16.60
2018-02-24T06:29:20.950Z,17.23
2018-02-24T06:31:48.476Z,16.03
2018-02-24T06:34:15.998Z,15.93
2018-02-24T06:36:43.519Z,16.13
2018-02-24T06:39:11.060Z,14.77
2018-02-24T06:41:38.653Z,16.17
2018-02-24T06:44:06.171Z,17.17
2018-02-24T06:46:33.698Z,16.03
2018-02-24T06:49:01.216Z,15.33
2018-02-24T06:51:28.729Z,13.93
2018-02-24T06:53:56.346Z,12.20
2018-02-24T06:56:23.862Z,12.73
2018-02-24T06:58:51.425Z,10.57
2018-02-24T07:01:18.959Z,8.87
2018-02-24T07:03:46.484Z,9.93
2018-02-24T07:06:14.027Z,8.93
2018-02-24T07:08:41.547Z,7.03
2018-02-24T07:11:09.055Z,5.87
2018-02-24T07:13:36.577Z,6.27
2018-02-24T07:16:04.123Z,7.13
2018-02-24T07:18:31.646Z,8.03
2018-02-24T07:20:59.155Z,7.20
2018-02-24T07:23:26.672Z,9.57
2018-02-24T07:25:54.216Z,5.80
2018-02-24T07:28:21.730Z,5.07
2018-02-24T07:30:49.252Z,5.63
2018-02-24T07:33:16.775Z,5.40
2018-02-24T07:35:44.326Z,7.40
2018-02-24T07:38:11.836Z,8.00
2018-02-24T07:40:39.348Z,7.03
2018-02-24T07:43:06.860Z,5.33
2018-02-24T07:45:34.484Z,5.07
2018-02-24T07:48:02.000Z,5.50
2018-02-24T07:50:29.514Z,6.37
2018-02-24T07:52:57.104Z,6.23
2018-02-24T07:55:24.601Z,4.80
2018-02-24T07:57:52.136Z,6.17
2018-02-24T08:00:19.744Z,5.40
2018-02-24T08:02:47.253Z,5.03
2018-02-24T08:05:14.765Z,5.80
2018-02-24T08:07:42.321Z,5.13
2018-02-24T08:10:09.828Z,7.33
2018-02-24T08:12:37.341Z,5.83
2018-02-24T08:15:04.851Z,4.53
2018-02-24T08:17:32.371Z,8.17
2018-02-24T08:19:59.893Z,7.77
2018-02-24T08:22:27.410Z,4.97
2018-02-24T08:24:54.930Z,5.30
2018-02-24T08:27:22.441Z,3.70
2018-02-24T08:29:50.063Z,4.43
2018-02-24T08:32:17.625Z,104.43
2018-02-24T08:34:45.147Z,3.80
2018-02-24T08:37:12.644Z,2.33
2018-02-24T08:39:40.175Z,5.83
2018-02-24T08:42:07.687Z,5.93
2018-02-24T08:44:35.202Z,5.50
2018-02-24T08:47:05.666Z,3.60
2018-02-24T08:49:33.217Z,4.87
2018-02-24T08:52:00.738Z,3.20
2018-02-24T08:54:28.347Z,5.40
2018-02-24T08:56:55.870Z,4.63
2018-02-24T08:59:23.379Z,5.17
2018-02-24T09:01:50.974Z,5.47
2018-02-24T09:04:18.521Z,3.23
2018-02-24T09:06:46.052Z,5.83
2018-02-24T09:09:13.573Z,3.47
2018-02-24T09:11:41.091Z,6.17
2018-02-24T09:14:08.642Z,4.43
2018-02-24T09:16:36.216Z,5.97
2018-02-24T09:19:03.779Z,2.93
2018-02-24T09:21:31.316Z,4.83
2018-02-24T09:23:58.840Z,14.00
2018-02-24T09:26:28.152Z,6.70
2018-02-24T09:28:55.682Z,3.00
2018-02-24T09:31:23.209Z,3.43
2018-02-24T09:33:50.707Z,4.93
2018-02-24T09:36:18.218Z,5.23
2018-02-24T09:38:45.732Z,4.90
2018-02-24T09:41:13.267Z,4.27
2018-02-24T09:43:40.787Z,5.77
2018-02-24T09:46:08.564Z,3.57
2018-02-24T09:48:36.087Z,4.70
2018-02-24T09:51:03.616Z,5.30
2018-02-24T09:53:31.159Z,3.10
2018-02-24T09:55:58.674Z,4.67
2018-02-24T09:58:26.246Z,3.30
2018-02-24T10:00:53.833Z,3.33
2018-02-24T10:03:21.415Z,3.43
2018-02-24T10:05:48.979Z,2.47
2018-02-24T10:08:16.534Z,4.63
2018-02-24T10:10:44.050Z,4.50
2018-02-24T10:13:11.561Z,2.53
2018-02-24T10:15:39.064Z,6.23
2018-02-24T10:18:06.576Z,7.20
2018-02-24T10:20:34.087Z,5.60
2018-02-24T10:23:01.624Z,4.90
2018-02-24T10:25:29.157Z,3.93
2018-02-24T10:27:56.677Z,7.17
2018-02-24T10:30:24.182Z,7.73
2018-02-24T10:32:53.842Z,3.23
2018-02-24T10:35:21.422Z,5.40
2018-02-24T10:37:48.933Z,6.40
2018-02-24T10:40:16.467Z,3.53
2018-02-24T10:42:43.973Z,4.53
2018-02-24T10:45:11.488Z,5.37
2018-02-24T10:47:39.014Z,4.73
2018-02-24T10:50:06.546Z,2.47
2018-02-24T10:52:34.072Z,4.37
2018-02-24T10:55:01.594Z,2.27
2018-02-24T10:57:29.167Z,2.20
2018-02-24T10:59:56.651Z,3.03
2018-02-24T11:02:24.166Z,3.20
2018-02-24T11:04:51.685Z,7.33
2018-02-24T11:07:19.200Z,3.93
2018-02-24T11:09:46.718Z,4.33
2018-02-24T11:12:14.229Z,3.50
2018-02-24T11:14:41.746Z,2.50
2018-02-24T11:17:09.276Z,4.40
2018-02-24T11:19:36.793Z,4.60
2018-02-24T11:22:04.309Z,3.47
2018-02-24T11:24:31.830Z,4.63
2018-02-24T11:26:59.340Z,4.37
2018-02-24T11:29:26.850Z,5.10
2018-02-24T11:31:54.362Z,7.13
2018-02-24T11:34:21.866Z,3.60
2018-02-24T11:36:49.392Z,3.23
2018-02-24T11:39:16.921Z,2.60
2018-02-24T11:41:44.462Z,2.40
2018-02-24T11:44:11.981Z,8.10
2018-02-24T11:46:39.501Z,3.30
2018-02-24T11:49:07.007Z,4.37
2018-02-24T11:51:34.526Z,5.63
2018-02-24T11:54:02.054Z,3.73
2018-02-24T11:56:29.573Z,4.90
2018-02-24T11:58:57.077Z,2.43
2018-02-24T12:01:24.589Z,4.37
2018-02-24T12:03:52.102Z,3.50
2018-02-24T12:06:19.614Z,4.97
2018-02-24T12:08:47.129Z,3.53
2018-02-24T12:11:14.641Z,2.70
2018-02-24T12:13:42.156Z,4.60
2018-02-24T12:16:09.697Z,5.47
2018-02-24T12:18:37.235Z,4.40
2018-02-24T12:21:04.744Z,5.20
2018-02-24T12:23:32.273Z,4.80
2018-02-24T12:25:59.789Z,4.93
2018-02-24T12:28:27.305Z,7.90
2018-02-24T12:30:54.834Z,2.43
2018-02-24T12:33:22.360Z,6.17
2018-02-24T12:35:49.885Z,4.27
2018-02-24T12:38:18.117Z,5.73
2018-02-24T12:40:45.622Z,5.60
2018-02-24T12:43:13.142Z,5.13
2018-02-24T12:45:40.645Z,8.13
2018-02-24T12:48:08.158Z,3.47
2018-02-24T12:50:35.680Z,8.00
2018-02-24T12:53:03.194Z,5.63
2018-02-24T12:55:30.705Z,4.47
2018-02-24T12:57:58.221Z,4.20
2018-02-24T13:00:25.726Z,6.23
2018-02-24T13:02:53.252Z,3.90
2018-02-24T13:05:20.767Z,3.90
2018-02-24T13:07:48.278Z,6.00
2018-02-24T13:10:15.805Z,6.43
2018-02-24T13:12:43.315Z,3.00
2018-02-24T13:15:10.821Z,4.53
2018-02-24T13:17:38.345Z,4.27
2018-02-24T13:20:05.860Z,5.07
2018-02-24T13:22:33.377Z,5.03
2018-02-24T13:25:00.893Z,5.17
2018-02-24T13:27:28.410Z,5.17
2018-02-24T13:29:55.921Z,3.13
2018-02-24T13:32:23.470Z,5.13
2018-02-24T13:34:50.957Z,4.50
2018-02-24T13:37:18.481Z,6.50
2018-02-24T13:39:45.994Z,4.03
2018-02-24T13:42:13.500Z,3.87
2018-02-24T13:44:41.023Z,4.00
2018-02-24T13:47:08.538Z,3.80
2018-02-24T13:49:36.056Z,4.10
2018-02-24T13:52:03.568Z,4.83
2018-02-24T13:54:31.074Z,2.00
2018-02-24T13:56:58.594Z,6.20
2018-02-24T13:59:26.093Z,4.30
2018-02-24T14:01:53.594Z,2.97
2018-02-24T14:04:21.114Z,5.93
2018-02-24T14:06:48.621Z,3.67
2018-02-24T14:09:16.127Z,4.30
2018-02-24T14:11:43.642Z,3.80
2018-02-24T14:14:11.156Z,4.83
2018-02-24T14:16:38.663Z,4.37
2018-02-24T14:19:06.170Z,4.93
2018-02-24T14:21:33.673Z,5.93
2018-02-24T14:24:01.209Z,6.40
2018-02-24T14:26:28.718Z,7.00
2018-02-24T14:28:56.226Z,4.40
2018-02-24T14:31:23.738Z,5.47
2018-02-24T14:33:51.253Z,6.90
2018-02-24T14:36:18.779Z,5.07
2018-02-24T14:38:46.294Z,5.57
2018-02-24T14:41:13.808Z,4.57
2018-02-24T14:43:41.328Z,2.77
2018-02-24T14:46:08.828Z,5.40
2018-02-24T14:48:36.331Z,5.80
2018-02-24T14:51:03.852Z,4.97
2018-02-24T14:53:31.361Z,4.77
2018-02-24T14:55:58.869Z,4.07
2018-02-24T14:58:26.369Z,5.47
2018-02-24T15:00:53.883Z,4.50
2018-02-24T15:03:21.398Z,4.93
2018-02-24T15:05:48.906Z,7.60
2018-02-24T15:08:16.461Z,5.80
2018-02-24T15:10:43.951Z,4.70
2018-02-24T15:13:11.476Z,10.43
2018-02-24T15:15:39.005Z,6.13
2018-02-24T15:18:06.534Z,4.50
2018-02-24T15:20:34.058Z,5.27
2018-02-24T15:23:01.572Z,5.90
2018-02-24T15:25:29.082Z,5.03
2018-02-24T15:27:56.619Z,5.27
2018-02-24T15:30:24.129Z,5.77
2018-02-24T15:32:51.645Z,5.50
2018-02-24T15:35:19.158Z,5.30
2018-02-24T15:37:46.672Z,7.07
2018-02-24T15:40:14.187Z,6.20
2018-02-24T15:42:41.707Z,6.07
2018-02-24T15:45:09.256Z,4.30
2018-02-24T15:47:36.783Z,6.20
2018-02-24T15:50:04.333Z,8.10
2018-02-24T15:52:31.899Z,5.27
2018-02-24T15:54:59.479Z,5.30
2018-02-24T15:57:26.995Z,5.30
2018-02-24T15:59:54.509Z,5.17
2018-02-24T16:02:22.097Z,7.03
2018-02-24T16:04:49.596Z,5.07
2018-02-24T16:07:17.116Z,6.03
2018-02-24T16:09:44.643Z,5.43
2018-02-24T16:12:12.145Z,5.37
2018-02-24T16:14:39.663Z,7.63
2018-02-24T16:17:07.177Z,8.67
2018-02-24T16:19:34.704Z,6.57
2018-02-24T16:22:02.254Z,6.27
2018-02-24T16:24:30.005Z,8.37
2018-02-24T16:26:57.546Z,6.53
2018-02-24T16:29:25.094Z,9.70
2018-02-24T16:31:52.610Z,8.97
2018-02-24T16:34:20.122Z,7.97
2018-02-24T16:36:47.673Z,6.40
2018-02-24T16:39:15.187Z,8.23
2018-02-24T16:41:42.713Z,5.27
2018-02-24T16:44:10.231Z,7.33
2018-02-24T16:46:37.769Z,3.70
2018-02-24T16:49:05.292Z,5.03
2018-02-24T16:51:33.144Z,17.70
2018-02-24T16:54:00.711Z,13.57
2018-02-24T16:56:28.233Z,6.03
2018-02-24T16:58:55.742Z,7.13
2018-02-24T17:01:23.262Z,4.97
2018-02-24T17:03:50.782Z,5.40
2018-02-24T17:06:18.295Z,3.93
2018-02-24T17:08:45.820Z,7.00
2018-02-24T17:11:13.374Z,7.20
2018-02-24T17:13:40.893Z,7.13
2018-02-24T17:16:08.409Z,5.67
2018-02-24T17:18:35.955Z,6.20
2018-02-24T17:21:03.517Z,8.10
2018-02-24T17:23:31.023Z,10.43
2018-02-24T17:25:58.542Z,7.47
2018-02-24T17:28:26.067Z,6.80
2018-02-24T17:30:53.580Z,7.87
2018-02-24T17:33:21.110Z,9.17
2018-02-24T17:35:48.631Z,9.70
2018-02-24T17:38:16.151Z,7.03
2018-02-24T17:40:43.688Z,10.77
2018-02-24T17:43:11.219Z,5.23
2018-02-24T17:45:38.741Z,6.30
2018-02-24T17:48:06.268Z,6.07
2018-02-24T17:50:33.788Z,7.17
2018-02-24T17:53:01.321Z,5.43
2018-02-24T17:55:28.846Z,6.33
2018-02-24T17:57:56.352Z,6.63
2018-02-24T18:00:24.053Z,6.33
2018-02-24T18:02:51.694Z,5.60
2018-02-24T18:05:19.219Z,9.43
2018-02-24T18:07:47.539Z,8.40
2018-02-24T18:10:15.069Z,6.87
2018-02-24T18:12:42.614Z,7.03
2018-02-24T18:15:10.135Z,4.30
2018-02-24T18:17:37.666Z,4.83
2018-02-24T18:20:05.188Z,6.70
2018-02-24T18:22:32.717Z,7.90
2018-02-24T18:25:00.245Z,5.63
2018-02-24T18:27:27.774Z,5.47
2018-02-24T18:29:55.292Z,7.37
2018-02-24T18:32:22.825Z,10.30
2018-02-24T18:34:50.352Z,5.30
2018-02-24T18:37:17.879Z,5.37
2018-02-24T18:39:45.392Z,7.43
2018-02-24T18:42:12.911Z,9.87
2018-02-24T18:44:40.432Z,7.43
2018-02-24T18:47:07.973Z,6.50
2018-02-24T18:49:35.493Z,5.73
2018-02-24T18:52:03.024Z,6.60
2018-02-24T18:54:30.554Z,5.63
2018-02-24T18:56:58.078Z,5.37
2018-02-24T18:59:25.605Z,5.73
2018-02-24T19:01:53.126Z,7.37
2018-02-24T19:04:20.658Z,7.50
2018-02-24T19:06:48.180Z,7.73
2018-02-24T19:09:15.709Z,5.17
2018-02-24T19:11:43.221Z,7.13
2018-02-24T19:14:10.922Z,5.37
2018-02-24T19:16:38.448Z,8.27
2018-02-24T19:19:05.961Z,5.50
2018-02-24T19:21:33.472Z,4.17
2018-02-24T19:24:01.021Z,6.33
2018-02-24T19:26:28.799Z,5.93
2018-02-24T19:28:56.356Z,6.67
2018-02-24T19:31:23.883Z,6.73
2018-02-24T19:33:51.650Z,7.33
2018-02-24T19:36:19.172Z,6.47
2018-02-24T19:38:46.738Z,8.50
2018-02-24T19:41:14.370Z,6.13
2018-02-24T19:43:41.894Z,6.33
2018-02-24T19:46:09.454Z,8.03
2018-02-24T19:48:36.969Z,6.23
2018-02-24T19:51:04.491Z,7.70
2018-02-24T19:53:32.054Z,8.07
2018-02-24T19:55:59.604Z,8.07
2018-02-24T19:58:27.124Z,6.40
2018-02-24T20:00:54.657Z,7.80
2018-02-24T20:03:22.173Z,8.13
2018-02-24T20:05:49.733Z,10.10
2018-02-24T20:08:17.290Z,8.47
2018-02-24T20:10:44.994Z,8.60
2018-02-24T20:13:12.521Z,9.80
2018-02-24T20:15:40.057Z,8.30
2018-02-24T20:18:07.586Z,9.30
2018-02-24T20:20:35.107Z,10.23
2018-02-24T20:23:02.812Z,6.70
2018-02-24T20:25:31.085Z,9.83
2018-02-24T20:27:58.609Z,7.37
2018-02-24T20:30:26.121Z,8.43
2018-02-24T20:32:53.670Z,10.90
2018-02-24T20:35:21.183Z,7.70
2018-02-24T20:37:48.694Z,8.40
2018-02-24T20:40:16.205Z,8.50
2018-02-24T20:42:43.713Z,7.17
2018-02-24T20:45:11.241Z,8.57
2018-02-24T20:47:38.765Z,12.03
2018-02-24T20:50:06.282Z,10.70
2018-02-24T20:52:34.137Z,11.53
2018-02-24T20:55:01.845Z,7.77
2018-02-24T20:57:30.438Z,5.77
2018-02-24T20:59:58.113Z,7.67
2018-02-24T21:02:25.665Z,12.47
2018-02-24T21:04:53.182Z,9.67
2018-02-24T21:07:20.807Z,7.00
2018-02-24T21:09:48.317Z,7.10
2018-02-24T21:12:15.835Z,9.30
2018-02-24T21:14:43.364Z,11.00
2018-02-24T21:17:11.078Z,9.67
2018-02-24T21:19:38.658Z,7.37
2018-02-24T21:22:06.186Z,9.10
2018-02-24T21:24:57.314Z,6.63
2018-02-24T21:27:24.859Z,9.23
2018-02-24T21:29:52.414Z,6.17
2018-02-24T21:32:25.627Z,5.53
2018-02-24T21:34:53.906Z,6.80
2018-02-24T21:37:22.343Z,8.17
2018-02-24T21:39:50.010Z,7.10
2018-02-24T21:42:17.632Z,7.93
2018-02-24T21:44:45.275Z,8.90
2018-02-24T21:47:12.902Z,9.90
2018-02-24T21:49:40.431Z,7.73
2018-02-24T21:52:07.944Z,8.03
2018-02-24T21:54:35.461Z,6.07
2018-02-24T21:57:03.004Z,7.73
2018-02-24T21:59:30.529Z,8.93
2018-02-24T22:01:58.057Z,7.93
2018-02-24T22:04:25.586Z,6.70
2018-02-24T22:06:53.141Z,5.80
2018-02-24T22:09:20.756Z,10.87
2018-02-24T22:11:48.269Z,6.90
2018-02-24T22:14:15.809Z,7.10
2018-02-24T22:16:43.356Z,7.37
2018-02-24T22:19:10.878Z,6.50
2018-02-24T22:21:38.406Z,10.80
2018-02-24T22:24:05.920Z,7.40
2018-02-24T22:26:33.448Z,9.13
2018-02-24T22:29:00.965Z,9.43
2018-02-24T22:31:28.513Z,7.03
2018-02-24T22:33:56.029Z,7.87
2018-02-24T22:36:23.761Z,8.33
2018-02-24T22:38:51.282Z,8.40
2018-02-24T22:41:18.796Z,7.50
2018-02-24T22:43:46.322Z,4.70
2018-02-24T22:46:13.845Z,7.10
2018-02-24T22:48:46.987Z,9.43
2018-02-24T22:51:14.527Z,9.05
2018-02-24T22:53:42.069Z,9.40
2018-02-24T22:56:09.586Z,5.97
2018-02-24T22:58:37.106Z,5.97
2018-02-24T23:01:04.655Z,9.90
2018-02-24T23:03:32.178Z,8.90
2018-02-24T23:05:59.706Z,9.13
2018-02-24T23:08:27.236Z,7.70
2018-02-24T23:10:54.756Z,5.40
2018-02-24T23:13:22.273Z,8.57
2018-02-24T23:15:49.812Z,8.43
2018-02-24T23:18:17.437Z,7.90
2018-02-24T23:20:45.041Z,7.13
2018-02-24T23:23:12.553Z,7.40
2018-02-24T23:25:40.078Z,9.10
2018-02-24T23:28:07.621Z,9.47
2018-02-24T23:30:35.138Z,7.13
2018-02-24T23:33:02.674Z,10.53
2018-02-24T23:35:30.189Z,8.80
2018-02-24T23:37:57.713Z,9.30
2018-02-24T23:40:25.238Z,11.63
2018-02-24T23:42:52.766Z,8.80
2018-02-24T23:45:20.326Z,7.93
2018-02-24T23:47:47.837Z,8.23
2018-02-24T23:50:15.422Z,10.90
2018-02-24T23:52:42.942Z,8.27
2018-02-24T23:55:10.462Z,10.40
2018-02-24T23:57:37.983Z,12.67
